TimeEST,TemperatureF,Dew PointF,Humidity,Sea Level PressureIn,VisibilityMPH,Wind Direction,Wind SpeedMPH,Gust SpeedMPH,PrecipitationIn,Events,Conditions,WindDirDegrees,DateUTC
12:11 AM,30.4,23.7,76,29.92,10.0,Calm,Calm,-,N/A,,Clear,0,2014-02-20 05:11:00
12:31 AM,30.7,23.2,74,29.93,10.0,Calm,Calm,-,N/A,,Clear,0,2014-02-20 05:31:00
12:52 AM,34.9,25.7,69,29.93,10.0,SSW,5.8,-,N/A,,Clear,200,2014-02-20 05:52:00
1:12 AM,35.6,25.9,68,29.94,10.0,South,6.9,-,N/A,,Clear,190,2014-02-20 06:12:00
1:32 AM,35.1,25.2,67,29.94,10.0,South,4.6,-,N/A,,Clear,170,2014-02-20 06:32:00
1:52 AM,34.9,24.3,65,29.93,10.0,South,6.9,-,N/A,,Clear,180,2014-02-20 06:52:00
2:12 AM,32.5,23.7,70,29.94,10.0,Calm,Calm,-,N/A,,Clear,0,2014-02-20 07:12:00
2:32 AM,30.4,23.2,75,29.94,10.0,Calm,Calm,-,N/A,,Clear,0,2014-02-20 07:32:00
2:52 AM,31.1,23.5,74,29.94,10.0,Calm,Calm,-,N/A,,Clear,0,2014-02-20 07:52:00
3:12 AM,31.3,24.1,75,29.94,10.0,SSE,3.5,-,N/A,,Clear,150,2014-02-20 08:12:00
3:32 AM,31.5,24.3,75,29.94,10.0,SE,3.5,-,N/A,,Scattered Clouds,130,2014-02-20 08:32:00
3:53 AM,31.5,24.3,75,29.92,10.0,Calm,Calm,-,N/A,,Scattered Clouds,0,2014-02-20 08:53:00
4:13 AM,31.8,25.2,76,29.92,10.0,ESE,4.6,-,N/A,,Clear,120,2014-02-20 09:13:00
4:33 AM,32.9,25.7,75,29.91,10.0,SE,5.8,-,N/A,,Clear,130,2014-02-20 09:33:00
4:53 AM,32.9,25.7,75,29.90,10.0,East,4.6,-,N/A,,Clear,100,2014-02-20 09:53:00
5:13 AM,32.7,25.7,75,29.90,10.0,ESE,5.8,-,N/A,,Clear,110,2014-02-20 10:13:00
5:33 AM,33.1,26.2,76,29.89,10.0,ESE,4.6,-,N/A,,Clear,120,2014-02-20 10:33:00
5:53 AM,33.1,26.2,76,29.89,10.0,SE,4.6,-,N/A,,Clear,130,2014-02-20 10:53:00
6:13 AM,33.1,26.2,76,29.88,10.0,SE,3.5,-,N/A,,Mostly Cloudy,130,2014-02-20 11:13:00
6:33 AM,33.8,26.4,74,29.86,10.0,ESE,4.6,-,N/A,,Mostly Cloudy,120,2014-02-20 11:33:00
6:53 AM,33.4,26.1,74,29.86,10.0,Calm,Calm,-,N/A,,Mostly Cloudy,0,2014-02-20 11:53:00
7:13 AM,33.6,26.2,74,29.85,10.0,SE,4.6,-,N/A,,Overcast,130,2014-02-20 12:13:00
7:34 AM,34.7,26.1,71,29.85,10.0,SE,5.8,-,N/A,,Overcast,130,2014-02-20 12:34:00
7:54 AM,35.6,25.5,67,29.84,10.0,ESE,5.8,-,N/A,,Mostly Cloudy,120,2014-02-20 12:54:00
8:14 AM,35.8,24.8,64,29.84,10.0,ESE,6.9,-,N/A,,Mostly Cloudy,120,2014-02-20 13:14:00
8:34 AM,36.0,24.4,63,29.84,10.0,SE,4.6,-,N/A,,Overcast,130,2014-02-20 13:34:00
8:54 AM,36.7,23.4,59,29.83,10.0,ESE,6.9,-,N/A,,Overcast,110,2014-02-20 13:54:00
9:14 AM,37.0,22.8,56,29.82,10.0,SE,9.2,-,N/A,,Overcast,130,2014-02-20 14:14:00
9:34 AM,37.0,23.0,57,29.83,10.0,SE,8.1,-,N/A,,Overcast,130,2014-02-20 14:34:00
9:54 AM,39.2,24.3,55,29.84,10.0,SSE,18.4,23.0,N/A,,Overcast,160,2014-02-20 14:54:00
10:15 AM,38.5,27.1,64,29.83,10.0,SSE,13.8,18.4,N/A,,Overcast,150,2014-02-20 15:15:00
10:35 AM,38.7,28.6,67,29.83,10.0,SSE,12.7,18.4,N/A,,Overcast,150,2014-02-20 15:35:00
10:55 AM,38.5,30.6,73,29.82,10.0,SE,11.5,16.1,N/A,,Mostly Cloudy,140,2014-02-20 15:55:00
11:15 AM,39.2,31.6,74,29.80,10.0,SE,13.8,26.5,N/A,,Mostly Cloudy,140,2014-02-20 16:15:00
11:35 AM,38.5,32.0,78,29.79,10.0,SE,17.3,21.9,N/A,,Overcast,130,2014-02-20 16:35:00
11:55 AM,39.0,32.2,76,29.77,10.0,SE,9.2,16.1,N/A,,Unknown,130,2014-02-20 16:55:00
12:15 PM,39.4,31.6,74,29.75,10.0,ESE,13.8,20.7,N/A,,Overcast,120,2014-02-20 17:15:00
12:35 PM,40.1,31.1,70,29.72,10.0,ESE,9.2,16.1,N/A,,Overcast,110,2014-02-20 17:35:00
12:55 PM,40.6,30.2,66,29.70,10.0,ESE,6.9,16.1,N/A,,Overcast,120,2014-02-20 17:55:00
1:16 PM,41.0,30.0,65,29.69,10.0,East,8.1,-,N/A,,Overcast,100,2014-02-20 18:16:00
1:36 PM,41.5,28.2,59,29.69,10.0,ESE,10.4,18.4,N/A,,Overcast,120,2014-02-20 18:36:00
1:56 PM,41.5,27.5,57,29.68,10.0,ESE,9.2,17.3,N/A,,Overcast,110,2014-02-20 18:56:00
2:16 PM,40.5,29.3,64,29.67,10.0,ESE,11.5,20.7,N/A,,Overcast,120,2014-02-20 19:16:00
2:36 PM,40.3,29.7,66,29.65,10.0,ESE,10.4,-,N/A,,Overcast,120,2014-02-20 19:36:00
2:51 PM,40.6,29.5,64,29.64,10.0,ESE,9.2,20.7,N/A,,Overcast,110,2014-02-20 19:51:00
3:11 PM,40.1,29.8,67,29.63,10.0,ESE,9.2,19.6,N/A,,Overcast,110,2014-02-20 20:11:00
3:31 PM,40.1,30.7,69,29.62,10.0,ESE,11.5,23.0,N/A,,Overcast,110,2014-02-20 20:31:00
3:51 PM,38.3,31.8,77,29.62,10.0,ESE,13.8,23.0,N/A,,Light Drizzle,110,2014-02-20 20:51:00
4:11 PM,37.8,32.0,80,29.61,10.0,ESE,6.9,19.6,N/A,,Overcast,110,2014-02-20 21:11:00
4:32 PM,37.8,32.0,80,29.55,10.0,ESE,18.4,29.9,N/A,,Overcast,120,2014-02-20 21:32:00
4:52 PM,37.4,31.8,80,29.53,10.0,ESE,12.7,32.2,N/A,,Mostly Cloudy,120,2014-02-20 21:52:00
5:12 PM,37.4,32.0,81,29.52,10.0,ESE,13.8,28.8,N/A,,Mostly Cloudy,110,2014-02-20 22:12:00
5:32 PM,37.6,31.6,79,29.48,10.0,ESE,13.8,28.8,N/A,,Mostly Cloudy,110,2014-02-20 22:32:00
5:52 PM,37.6,31.6,79,29.45,10.0,East,19.6,29.9,N/A,,Scattered Clouds,100,2014-02-20 22:52:00
6:12 PM,37.6,31.6,79,29.43,10.0,ESE,18.4,29.9,N/A,,Scattered Clouds,110,2014-02-20 23:12:00
6:32 PM,37.4,32.0,81,29.41,10.0,ESE,15.0,28.8,N/A,Rain,Light Rain,110,2014-02-20 23:32:00
6:52 PM,37.4,32.0,81,29.39,10.0,ESE,18.4,27.6,N/A,,Overcast,110,2014-02-20 23:52:00
7:12 PM,37.4,32.0,81,29.36,7.0,ESE,19.6,39.1,N/A,Rain,Light Rain,120,2014-02-21 00:12:00
7:32 PM,36.9,32.4,84,29.34,10.0,ESE,19.6,33.4,N/A,,Overcast,110,2014-02-21 00:32:00
7:53 PM,36.5,32.4,85,29.32,10.0,SE,18.4,32.2,N/A,,Light Drizzle,130,2014-02-21 00:53:00
8:13 PM,36.1,32.4,86,29.29,10.0,ESE,21.9,31.1,N/A,Rain,Light Rain,120,2014-02-21 01:13:00
8:33 PM,36.1,32.5,87,29.29,7.0,ESE,23.0,32.2,N/A,Rain,Light Rain,120,2014-02-21 01:33:00
8:53 PM,36.0,33.1,89,29.26,5.0,ESE,21.9,33.4,N/A,Rain,Light Rain,120,2014-02-21 01:53:00
9:13 PM,36.3,33.3,89,29.26,10.0,SE,21.9,31.1,N/A,Snow,Light Snow,130,2014-02-21 02:13:00
9:33 PM,36.5,33.4,89,29.25,10.0,SE,17.3,33.4,N/A,Rain,Light Rain,140,2014-02-21 02:33:00
9:53 PM,36.7,33.8,89,29.21,10.0,SE,20.7,31.1,N/A,,Overcast,130,2014-02-21 02:53:00
10:13 PM,37.0,33.8,88,29.19,10.0,ESE,18.4,27.6,N/A,,Overcast,120,2014-02-21 03:13:00
10:34 PM,37.4,34.0,87,29.17,10.0,ESE,15.0,28.8,N/A,,Overcast,120,2014-02-21 03:34:00
10:54 PM,37.8,34.7,89,29.16,7.0,ESE,16.1,26.5,N/A,,Overcast,120,2014-02-21 03:54:00
11:14 PM,37.9,35.6,91,29.13,10.0,SE,17.3,24.2,N/A,,Overcast,130,2014-02-21 04:14:00
11:34 PM,39.7,37.4,91,29.12,10.0,SE,16.1,24.2,N/A,,Overcast,140,2014-02-21 04:34:00
11:54 PM,40.1,37.8,91,29.12,3.0,SSE,17.3,25.3,N/A,Rain,Light Rain,150,2014-02-21 04:54:00